createdAt,value
2018-08-17T00:00:08.358Z,99582.69
2018-08-17T00:02:37.399Z,99577.65
2018-08-17T00:05:06.355Z,99578.58
2018-08-17T00:07:35.316Z,99573.60
2018-08-17T00:10:04.769Z,99562.54
2018-08-17T00:12:33.778Z,99564.75
2018-08-17T00:15:02.803Z,99564.17
2018-08-17T00:17:31.800Z,99557.73
2018-08-17T00:20:00.799Z,99562.28
2018-08-17T00:22:29.793Z,99554.30
2018-08-17T00:24:58.779Z,99557.85
2018-08-17T00:27:27.821Z,99559.42
2018-08-17T00:29:56.827Z,99559.72
2018-08-17T00:32:25.838Z,99554.31
2018-08-17T00:34:54.839Z,99558.02
2018-08-17T00:37:23.942Z,99552.27
2018-08-17T00:39:52.911Z,99554.27
2018-08-17T00:42:21.903Z,99549.05
2018-08-17T00:44:50.882Z,99554.67
2018-08-17T00:47:19.919Z,99553.31
2018-08-17T00:49:48.895Z,99550.27
2018-08-17T00:52:17.924Z,99553.81
2018-08-17T00:54:46.902Z,99548.26
2018-08-17T00:57:15.919Z,99556.50
2018-08-17T00:59:44.901Z,99557.10
2018-08-17T01:02:13.878Z,99548.63
2018-08-17T01:04:42.974Z,99549.48
2018-08-17T01:07:11.899Z,99556.17
2018-08-17T01:09:40.893Z,99552.13
2018-08-17T01:12:09.992Z,99551.80
2018-08-17T01:14:38.990Z,99550.93
2018-08-17T01:17:07.962Z,99556.67
2018-08-17T01:19:37.090Z,99556.55
2018-08-17T01:22:06.310Z,99555.94
2018-08-17T01:24:35.286Z,99556.10
2018-08-17T01:27:04.282Z,99564.65
2018-08-17T01:29:35.598Z,99556.91
2018-08-17T01:32:04.655Z,99557.77
2018-08-17T01:34:33.661Z,99555.72
2018-08-17T01:37:02.626Z,99558.20
2018-08-17T01:39:31.662Z,99557.60
2018-08-17T01:42:00.665Z,99558.50
2018-08-17T01:44:29.657Z,99555.36
2018-08-17T01:46:58.638Z,99562.66
2018-08-17T01:49:27.697Z,99558.77
2018-08-17T01:51:56.682Z,99562.33
2018-08-17T01:54:25.741Z,99558.36
2018-08-17T01:56:54.730Z,99563.09
2018-08-17T01:59:23.733Z,99565.14
2018-08-17T02:01:52.741Z,99560.66
2018-08-17T02:04:21.743Z,99562.57
2018-08-17T02:06:50.725Z,99568.64
2018-08-17T02:09:19.739Z,99570.71
2018-08-17T02:11:48.750Z,99561.51
2018-08-17T02:14:17.752Z,99562.30
2018-08-17T02:16:47.143Z,99569.28
2018-08-17T02:19:16.138Z,99572.69
2018-08-17T02:21:45.111Z,99579.01
2018-08-17T02:24:14.106Z,99576.70
2018-08-17T02:26:43.081Z,99574.86
2018-08-17T02:29:12.211Z,99571.84
2018-08-17T02:31:41.218Z,99574.25
2018-08-17T02:34:10.255Z,99572.80
2018-08-17T02:36:39.221Z,99573.98
2018-08-17T02:39:13.354Z,99577.95
2018-08-17T02:41:42.369Z,99575.06
2018-08-17T02:44:11.367Z,99572.43
2018-08-17T02:46:40.363Z,99570.48
2018-08-17T02:49:09.354Z,99566.53
2018-08-17T02:51:38.345Z,99565.77
2018-08-17T02:54:07.431Z,99563.06
2018-08-17T02:56:36.406Z,99562.11
2018-08-17T02:59:05.644Z,99558.50
2018-08-17T03:01:34.689Z,99560.82
2018-08-17T03:04:03.698Z,99547.62
2018-08-17T03:06:32.743Z,99553.05
2018-08-17T03:09:02.622Z,99547.98
2018-08-17T03:11:31.614Z,99543.84
2018-08-17T03:14:00.619Z,99547.48
2018-08-17T03:16:29.601Z,99549.30
2018-08-17T03:18:58.823Z,99549.65
2018-08-17T03:21:27.783Z,99545.84
2018-08-17T03:23:56.891Z,99549.91
2018-08-17T03:26:25.930Z,99551.86
2018-08-17T03:28:54.934Z,99551.48
2018-08-17T03:31:23.923Z,99550.19
2018-08-17T03:33:52.959Z,99554.73
2018-08-17T03:36:21.934Z,99558.05
2018-08-17T03:38:50.945Z,99561.67
2018-08-17T03:41:19.922Z,99561.64
2018-08-17T03:43:48.939Z,99563.11
2018-08-17T03:46:18.186Z,99568.59
2018-08-17T03:48:47.147Z,99571.27
2018-08-17T03:51:16.186Z,99575.69
2018-08-17T03:53:45.174Z,99575.03
2018-08-17T03:56:14.143Z,99574.56
2018-08-17T03:58:43.141Z,99572.28
2018-08-17T04:01:12.120Z,99570.99
2018-08-17T04:03:41.110Z,99582.81
2018-08-17T04:06:10.090Z,99589.77
2018-08-17T04:08:39.154Z,99583.52
2018-08-17T04:11:08.149Z,99584.52
2018-08-17T04:13:37.222Z,99590.33
2018-08-17T04:16:06.224Z,99593.64
2018-08-17T04:18:35.202Z,99595.64
2018-08-17T04:21:04.458Z,99599.48
2018-08-17T04:23:33.456Z,99602.34
2018-08-17T04:26:02.423Z,99600.10
2018-08-17T04:28:31.426Z,99605.09
2018-08-17T04:31:00.417Z,99604.45
2018-08-17T04:33:29.581Z,99607.91
2018-08-17T04:35:58.559Z,99606.41
2018-08-17T04:38:27.635Z,99607.06
2018-08-17T04:40:56.611Z,99614.47
2018-08-17T04:43:25.606Z,99616.61
2018-08-17T04:45:54.561Z,99611.98
2018-08-17T04:48:23.674Z,99617.92
2018-08-17T04:50:52.640Z,99622.54
2018-08-17T04:53:21.622Z,99624.82
2018-08-17T04:55:50.610Z,99625.66
2018-08-17T04:58:19.694Z,99629.11
2018-08-17T05:00:48.790Z,99635.02
2018-08-17T05:03:17.824Z,99633.06
2018-08-17T05:05:46.778Z,99635.35
2018-08-17T05:08:15.813Z,99639.95
2018-08-17T05:10:44.971Z,99646.22
2018-08-17T05:13:13.958Z,99648.17
2018-08-17T05:15:42.977Z,99644.90
2018-08-17T05:18:12.185Z,99652.61
2018-08-17T05:20:41.258Z,99649.00
2018-08-17T05:23:10.538Z,99657.34
2018-08-17T05:25:39.585Z,99655.20
2018-08-17T05:28:08.563Z,99653.39
2018-08-17T05:30:37.554Z,99651.73
2018-08-17T05:33:06.539Z,99655.34
2018-08-17T05:35:35.607Z,99657.28
2018-08-17T05:38:04.616Z,99660.88
2018-08-17T05:40:33.626Z,99657.55
2018-08-17T05:43:02.604Z,99664.09
2018-08-17T05:45:31.598Z,99654.68
2018-08-17T05:48:00.582Z,99656.77
2018-08-17T05:50:32.534Z,99663.69
2018-08-17T05:53:02.036Z,99664.33
2018-08-17T05:55:31.282Z,99669.52
2018-08-17T05:58:00.250Z,99675.03
2018-08-17T06:00:29.254Z,99667.34
2018-08-17T06:02:58.407Z,99666.91
2018-08-17T06:05:27.296Z,99666.71
2018-08-17T06:07:56.266Z,99670.58
2018-08-17T06:10:25.282Z,99666.39
2018-08-17T06:12:54.333Z,99665.43
2018-08-17T06:15:23.331Z,99671.68
2018-08-17T06:17:52.303Z,99672.19
2018-08-17T06:20:21.317Z,99673.50
2018-08-17T06:22:50.426Z,99677.94
2018-08-17T06:25:19.415Z,99684.61
2018-08-17T06:27:48.382Z,99690.42
2018-08-17T06:30:17.379Z,99700.38
2018-08-17T06:32:46.362Z,99704.55
2018-08-17T06:35:15.403Z,99711.62
2018-08-17T06:37:44.701Z,99714.53
2018-08-17T06:40:13.723Z,99713.77
2018-08-17T06:42:42.743Z,99715.31
2018-08-17T06:45:12.615Z,99713.54
2018-08-17T06:47:41.638Z,99728.86
2018-08-17T06:50:11.270Z,99728.33
2018-08-17T06:52:41.383Z,99734.22
2018-08-17T06:55:11.502Z,99736.42
2018-08-17T06:57:40.841Z,99734.45
2018-08-17T07:00:14.198Z,99728.02
2018-08-17T07:02:44.285Z,99727.28
2018-08-17T07:05:13.290Z,99728.23
2018-08-17T07:07:42.402Z,99729.50
2018-08-17T07:10:12.766Z,99729.05
2018-08-17T07:12:42.210Z,99732.62
2018-08-17T07:15:11.350Z,99744.02
2018-08-17T07:17:40.816Z,99737.53
2018-08-17T07:20:11.856Z,99739.41
2018-08-17T07:22:41.826Z,99743.99
2018-08-17T07:25:11.206Z,99745.17
2018-08-17T07:27:40.321Z,99750.19
2018-08-17T07:30:09.865Z,99751.20
2018-08-17T07:32:38.920Z,99751.16
2018-08-17T07:35:09.864Z,99756.87
2018-08-17T07:37:39.204Z,99762.22
2018-08-17T07:40:08.854Z,99759.08
2018-08-17T07:42:38.594Z,99761.49
2018-08-17T07:45:08.111Z,99763.75
2018-08-17T07:47:37.361Z,99766.59
2018-08-17T07:50:09.078Z,99765.53
2018-08-17T07:52:39.343Z,99764.56
2018-08-17T07:55:08.870Z,99770.49
2018-08-17T07:57:37.926Z,99777.01
2018-08-17T08:00:07.938Z,99774.97
2018-08-17T08:02:38.240Z,99779.36
2018-08-17T08:05:09.062Z,99778.93
2018-08-17T08:07:39.217Z,99781.39
2018-08-17T08:10:09.818Z,99782.69
2018-08-17T08:12:39.722Z,99781.78
2018-08-17T08:15:09.820Z,99794.17
2018-08-17T08:17:39.053Z,99793.34
2018-08-17T08:20:19.742Z,99799.30
2018-08-17T08:22:50.566Z,99800.00
2018-08-17T08:25:19.900Z,99806.62
2018-08-17T08:27:49.210Z,99811.09
2018-08-17T08:30:18.853Z,99814.42
2018-08-17T08:32:48.282Z,99818.45
2018-08-17T08:35:18.214Z,99817.84
2018-08-17T08:37:47.206Z,99827.26
2018-08-17T08:40:16.546Z,99829.49
2018-08-17T08:42:45.773Z,99832.22
2018-08-17T08:45:14.761Z,99826.52
2018-08-17T08:47:45.333Z,99830.56
2018-08-17T08:50:16.064Z,99831.44
2018-08-17T08:52:45.599Z,99836.20
2018-08-17T08:55:14.953Z,99842.20
2018-08-17T08:57:44.378Z,99836.48
2018-08-17T09:00:13.754Z,99838.86
2018-08-17T09:02:43.253Z,99843.33
2018-08-17T09:05:12.243Z,99834.95
2018-08-17T09:07:42.108Z,99839.95
2018-08-17T09:10:11.837Z,99829.78
2018-08-17T09:12:40.878Z,99829.39
2018-08-17T09:15:11.740Z,99829.91
2018-08-17T09:17:42.554Z,99833.48
2018-08-17T09:20:13.648Z,99826.83
2018-08-17T09:22:43.109Z,99823.25
2018-08-17T09:25:13.006Z,99827.73
2018-08-17T09:27:42.869Z,99827.44
2018-08-17T09:30:13.683Z,99833.20
2018-08-17T09:32:42.579Z,99832.78
2018-08-17T09:35:12.948Z,99823.37
2018-08-17T09:37:41.973Z,99825.59
2018-08-17T09:40:12.105Z,99826.83
2018-08-17T09:42:41.309Z,99814.44
2018-08-17T09:45:12.539Z,99818.81
2018-08-17T09:47:42.027Z,99816.35
2018-08-17T09:50:13.802Z,99821.23
2018-08-17T09:52:43.238Z,99820.06
2018-08-17T09:55:12.344Z,99817.69
2018-08-17T09:57:41.587Z,99815.83
2018-08-17T10:00:11.722Z,99813.46
2018-08-17T10:02:46.430Z,99813.67
2018-08-17T10:05:22.691Z,99813.36
2018-08-17T10:07:57.059Z,99817.84
2018-08-17T10:10:26.082Z,99814.48
2018-08-17T10:12:55.077Z,99806.31
2018-08-17T10:15:24.054Z,99812.30
2018-08-17T10:17:53.067Z,99809.97
2018-08-17T10:20:24.227Z,99811.09
2018-08-17T10:22:59.808Z,99811.42
2018-08-17T10:25:28.787Z,99809.18
2018-08-17T10:27:58.560Z,99802.92
2018-08-17T10:30:27.530Z,99805.45
2018-08-17T10:32:58.564Z,99802.59
2018-08-17T10:35:28.815Z,99799.86
2018-08-17T10:37:59.059Z,99794.75
2018-08-17T10:40:28.239Z,99788.41
2018-08-17T10:43:00.952Z,99787.78
2018-08-17T10:45:30.058Z,99791.61
2018-08-17T10:47:59.298Z,99784.69
2018-08-17T10:50:30.523Z,99781.13
2018-08-17T10:53:00.682Z,99776.77
2018-08-17T10:55:37.692Z,99778.92
2018-08-17T10:58:07.055Z,99783.70
2018-08-17T11:00:36.054Z,99777.45
2018-08-17T11:03:05.121Z,99780.95
2018-08-17T11:05:34.090Z,99775.09
2018-08-17T11:09:11.040Z,99780.95
2018-08-17T11:11:43.407Z,99771.96
2018-08-17T11:14:12.383Z,99770.19
2018-08-17T11:16:41.370Z,99771.55
2018-08-17T11:19:10.495Z,99770.61
2018-08-17T11:21:39.491Z,99767.69
2018-08-17T11:24:08.506Z,99770.84
2018-08-17T11:26:38.107Z,99768.73
2018-08-17T11:29:07.107Z,99765.25
2018-08-17T11:31:36.145Z,99760.53
2018-08-17T11:34:05.241Z,99754.34
2018-08-17T11:36:34.231Z,99752.55
2018-08-17T11:39:03.511Z,99746.21
2018-08-17T11:41:32.568Z,99745.88
2018-08-17T11:44:05.907Z,99745.98
2018-08-17T11:46:34.904Z,99748.56
2018-08-17T11:49:03.903Z,99752.16
2018-08-17T11:51:33.235Z,99748.14
2018-08-17T11:54:02.508Z,99742.15
2018-08-17T11:56:31.463Z,99745.14
2018-08-17T11:59:00.779Z,99744.05
2018-08-17T12:01:29.784Z,99746.99
2018-08-17T12:03:58.880Z,99741.78
2018-08-17T12:06:27.900Z,99736.20
2018-08-17T12:08:57.844Z,99737.61
2018-08-17T12:11:26.819Z,99744.13
2018-08-17T12:13:55.853Z,99737.27
2018-08-17T12:16:24.871Z,99741.05
2018-08-17T12:18:53.914Z,99743.61
2018-08-17T12:21:22.887Z,99741.73
2018-08-17T12:23:51.877Z,99739.03
2018-08-17T12:26:20.972Z,99737.75
2018-08-17T12:28:49.962Z,99731.22
2018-08-17T12:31:18.949Z,99725.06
2018-08-17T12:33:48.294Z,99729.74
2018-08-17T12:36:17.294Z,99726.48
2018-08-17T12:38:46.291Z,99727.08
2018-08-17T12:41:15.538Z,99731.41
2018-08-17T12:43:44.539Z,99736.70
2018-08-17T12:46:13.523Z,99732.47
2018-08-17T12:48:42.832Z,99731.41
2018-08-17T12:51:11.883Z,99728.96
2018-08-17T12:53:40.876Z,99732.94
2018-08-17T12:56:09.971Z,99730.23
2018-08-17T12:58:38.955Z,99723.88
2018-08-17T13:01:08.027Z,99734.13
2018-08-17T13:03:37.072Z,99724.92
2018-08-17T13:06:06.060Z,99723.88
2018-08-17T13:08:35.072Z,99721.46
2018-08-17T13:11:04.092Z,99717.73
2018-08-17T13:13:33.089Z,99722.35
2018-08-17T13:16:04.588Z,99719.92
2018-08-17T13:18:34.483Z,99720.72
2018-08-17T13:21:03.492Z,99718.57
2018-08-17T13:23:32.536Z,99714.73
2018-08-17T13:26:01.596Z,99710.16
2018-08-17T13:28:30.615Z,99708.54
2018-08-17T13:30:59.604Z,99709.88
2018-08-17T13:33:28.596Z,99710.45
2018-08-17T13:35:57.628Z,99707.77
2018-08-17T13:38:26.604Z,99706.70
2018-08-17T13:40:55.618Z,99712.34
2018-08-17T13:43:24.584Z,99716.96
2018-08-17T13:45:53.891Z,99715.05
2018-08-17T13:48:22.950Z,99702.38
2018-08-17T13:50:51.937Z,99699.93
2018-08-17T13:53:20.957Z,99702.00
2018-08-17T13:55:49.946Z,99699.88
2018-08-17T13:58:19.340Z,99703.14
2018-08-17T14:00:48.323Z,99697.45
2018-08-17T14:03:17.314Z,99697.20
2018-08-17T14:05:46.671Z,99690.34
2018-08-17T14:08:16.287Z,99685.57
2018-08-17T14:10:45.261Z,99693.86
2018-08-17T14:13:14.724Z,99689.88
2018-08-17T14:15:43.894Z,99704.28
2018-08-17T14:18:13.240Z,99696.55
2018-08-17T14:20:42.230Z,99705.70
2018-08-17T14:23:11.215Z,99719.56
2018-08-17T14:25:40.286Z,99712.45
2018-08-17T14:28:09.271Z,99705.59
2018-08-17T14:30:38.267Z,99710.14
2018-08-17T14:33:07.283Z,99709.61
2018-08-17T14:35:36.264Z,99709.74
2018-08-17T14:38:05.395Z,99710.45
2018-08-17T14:40:34.363Z,99717.77
2018-08-17T14:43:10.071Z,99719.00
2018-08-17T14:45:39.079Z,99716.14
2018-08-17T14:48:08.096Z,99717.25
2018-08-17T14:50:37.072Z,99717.44
2018-08-17T14:53:06.079Z,99713.95
2018-08-17T14:55:35.267Z,99721.66
2018-08-17T14:58:04.574Z,99721.11
2018-08-17T15:00:33.555Z,99725.16
2018-08-17T15:03:02.663Z,99729.73
2018-08-17T15:05:31.662Z,99724.00
2018-08-17T15:08:00.698Z,99722.33
2018-08-17T15:10:36.482Z,99715.06
2018-08-17T15:13:05.485Z,99723.15
2018-08-17T15:15:34.711Z,99725.22
2018-08-17T15:18:03.743Z,99727.52
2018-08-17T15:20:32.734Z,99725.72
2018-08-17T15:23:01.735Z,99722.30
2018-08-17T15:25:30.784Z,99718.48
2018-08-17T15:27:59.797Z,99712.95
2018-08-17T15:30:28.832Z,99708.75
2018-08-17T15:32:57.828Z,99703.48
2018-08-17T15:35:26.821Z,99696.43
2018-08-17T15:37:55.840Z,99693.39
2018-08-17T15:40:24.836Z,99697.19
2018-08-17T15:42:58.036Z,99696.55
2018-08-17T15:45:27.011Z,99701.92
2018-08-17T15:47:55.986Z,99703.07
2018-08-17T15:50:25.000Z,99696.99
2018-08-17T15:52:53.978Z,99695.43
2018-08-17T15:55:23.008Z,99691.40
2018-08-17T15:57:52.116Z,99695.77
2018-08-17T16:00:21.036Z,99694.41
2018-08-17T16:02:50.022Z,99691.51
2018-08-17T16:05:19.467Z,99690.98
2018-08-17T16:07:48.487Z,99699.90
2018-08-17T16:10:17.517Z,99706.42
2018-08-17T16:12:46.512Z,99700.16
2018-08-17T16:15:21.095Z,99707.01
2018-08-17T16:17:50.122Z,99710.19
2018-08-17T16:20:19.136Z,99711.07
2018-08-17T16:22:48.325Z,99717.22
2018-08-17T16:25:17.639Z,99714.64
2018-08-17T16:27:46.634Z,99714.96
2018-08-17T16:30:15.904Z,99722.19
2018-08-17T16:32:44.935Z,99722.92
2018-08-17T16:35:14.108Z,99729.06
2018-08-17T16:37:45.269Z,99731.37
2018-08-17T16:40:14.433Z,99730.25
2018-08-17T16:42:43.547Z,99737.31
2018-08-17T16:45:13.396Z,99748.09
2018-08-17T16:47:42.437Z,99740.42
2018-08-17T16:50:11.420Z,99754.03
2018-08-17T16:52:40.803Z,99758.23
2018-08-17T16:55:10.007Z,99757.11
2018-08-17T16:57:39.052Z,99762.55
2018-08-17T17:00:10.039Z,99759.34
2018-08-17T17:02:39.306Z,99770.25
2018-08-17T17:05:08.443Z,99770.90
2018-08-17T17:07:37.447Z,99777.66
2018-08-17T17:10:08.561Z,99770.02
2018-08-17T17:12:37.582Z,99775.88
2018-08-17T17:15:13.959Z,99781.23
2018-08-17T17:17:44.726Z,99782.66
2018-08-17T17:20:13.714Z,99799.47
2018-08-17T17:22:42.698Z,99804.63
2018-08-17T17:25:18.065Z,99812.80
2018-08-17T17:27:47.680Z,99812.59
2018-08-17T17:30:16.639Z,99817.56
2018-08-17T17:32:45.631Z,99827.98
2018-08-17T17:35:14.671Z,99834.41
2018-08-17T17:37:43.979Z,99832.33
2018-08-17T17:40:13.019Z,99841.51
2018-08-17T17:42:42.004Z,99837.66
2018-08-17T17:45:11.054Z,99853.66
2018-08-17T17:47:40.036Z,99852.91
2018-08-17T17:50:09.053Z,99870.27
2018-08-17T17:52:38.078Z,99873.83
2018-08-17T17:55:07.175Z,99877.83
2018-08-17T17:57:36.210Z,99880.50
2018-08-17T18:00:05.369Z,99878.20
2018-08-17T18:02:34.383Z,99882.41
2018-08-17T18:05:03.377Z,99891.00
2018-08-17T18:07:37.670Z,99899.95
2018-08-17T18:10:06.831Z,99902.02
2018-08-17T18:12:35.823Z,99906.98
2018-08-17T18:15:05.195Z,99912.09
2018-08-17T18:17:34.202Z,99913.99
2018-08-17T18:20:03.211Z,99920.63
2018-08-17T18:22:32.774Z,99926.09
2018-08-17T18:25:07.935Z,99927.47
2018-08-17T18:27:36.986Z,99937.91
2018-08-17T18:30:06.127Z,99938.84
2018-08-17T18:32:35.238Z,99950.20
2018-08-17T18:35:04.476Z,99954.75
2018-08-17T18:37:33.523Z,99968.07
2018-08-17T18:40:02.514Z,99976.29
2018-08-17T18:42:31.551Z,99983.28
2018-08-17T18:45:00.625Z,99983.55
2018-08-17T18:47:29.631Z,99997.30
2018-08-17T18:49:58.627Z,100003.34
2018-08-17T18:52:27.689Z,100002.23
2018-08-17T18:54:56.724Z,100006.34
2018-08-17T18:57:26.008Z,100005.20
2018-08-17T18:59:55.015Z,100013.48
2018-08-17T19:02:24.011Z,100027.42
2018-08-17T19:04:53.044Z,100037.65
2018-08-17T19:07:22.447Z,100040.50
2018-08-17T19:09:51.451Z,100051.63
2018-08-17T19:12:20.563Z,100058.25
2018-08-17T19:14:50.643Z,100065.72
2018-08-17T19:17:25.031Z,100077.09
2018-08-17T19:19:54.107Z,100087.45
2018-08-17T19:22:23.134Z,100090.30
2018-08-17T19:24:52.926Z,100097.45
2018-08-17T19:27:31.310Z,100100.69
2018-08-17T19:30:00.427Z,100105.16
2018-08-17T19:32:29.488Z,100107.09
2018-08-17T19:34:58.507Z,100100.63
2018-08-17T19:37:27.539Z,100099.77
2018-08-17T19:39:56.567Z,100095.46
2018-08-17T19:42:25.567Z,100097.87
2018-08-17T19:44:54.577Z,100106.81
2018-08-17T19:47:23.807Z,100101.71
2018-08-17T19:49:52.804Z,100100.41
2018-08-17T19:52:21.811Z,100102.84
2018-08-17T19:54:50.851Z,100107.70
2018-08-17T19:57:19.851Z,100111.42
2018-08-17T19:59:48.855Z,100126.97
2018-08-17T20:02:17.882Z,100132.28
2018-08-17T20:04:46.898Z,100137.00
2018-08-17T20:07:15.931Z,100137.71
2018-08-17T20:09:44.947Z,100146.23
2018-08-17T20:12:14.138Z,100138.16
2018-08-17T20:14:43.175Z,100138.30
2018-08-17T20:17:12.194Z,100136.27
2018-08-17T20:19:47.811Z,100131.91
2018-08-17T20:22:19.984Z,100132.67
2018-08-17T20:24:49.056Z,100126.96
2018-08-17T20:27:18.835Z,100130.30
2018-08-17T20:29:47.934Z,100128.58
2018-08-17T20:32:17.000Z,100135.11
2018-08-17T20:34:47.891Z,100138.67
2018-08-17T20:37:17.762Z,100147.05
2018-08-17T20:39:47.597Z,100151.14
2018-08-17T20:42:16.594Z,100157.52
2018-08-17T20:44:45.679Z,100156.30
2018-08-17T20:47:14.759Z,100157.06
2018-08-17T20:49:43.847Z,100160.74
2018-08-17T20:52:12.891Z,100162.33
2018-08-17T20:54:41.894Z,100167.52
2018-08-17T20:57:10.899Z,100169.54
2018-08-17T20:59:46.507Z,100175.89
2018-08-17T21:02:15.512Z,100182.62
2018-08-17T21:04:44.518Z,100190.92
2018-08-17T21:07:13.602Z,100196.56
2018-08-17T21:09:42.608Z,100192.31
2018-08-17T21:12:11.647Z,100189.69
2018-08-17T21:14:40.643Z,100191.17
2018-08-17T21:17:09.659Z,100190.38
2018-08-17T21:19:40.175Z,100193.06
2018-08-17T21:22:10.179Z,100190.44
2018-08-17T21:24:39.199Z,100194.48
2018-08-17T21:27:08.210Z,100199.14
2018-08-17T21:29:37.270Z,100206.13
2018-08-17T21:32:06.243Z,100206.63
2018-08-17T21:34:35.246Z,100209.96
2018-08-17T21:37:04.278Z,100210.14
2018-08-17T21:39:33.291Z,100214.14
2018-08-17T21:42:02.366Z,100227.39
2018-08-17T21:44:31.395Z,100226.08
2018-08-17T21:47:04.591Z,100225.09
2018-08-17T21:49:34.343Z,100225.23
2018-08-17T21:52:06.094Z,100220.83
2018-08-17T21:54:35.364Z,100228.72
2018-08-17T21:57:04.891Z,100228.23
2018-08-17T21:59:39.333Z,100231.53
2018-08-17T22:02:10.123Z,100226.78
2018-08-17T22:04:39.131Z,100220.33
2018-08-17T22:07:12.342Z,100224.64
2018-08-17T22:09:42.414Z,100225.81
2018-08-17T22:12:12.195Z,100218.38
2018-08-17T22:14:41.353Z,100225.52
2018-08-17T22:17:21.136Z,100222.54
2018-08-17T22:19:50.244Z,100225.55
2018-08-17T22:22:19.207Z,100226.53
2018-08-17T22:24:54.403Z,100234.80
2018-08-17T22:27:24.203Z,100229.52
2018-08-17T22:29:55.166Z,100228.86
2018-08-17T22:32:24.524Z,100238.13
2018-08-17T22:34:53.834Z,100232.52
2018-08-17T22:37:22.879Z,100228.05
2018-08-17T22:39:51.916Z,100228.07
2018-08-17T22:42:22.144Z,100230.33
2018-08-17T22:44:51.114Z,100231.01
2018-08-17T22:47:22.015Z,100229.52
2018-08-17T22:49:51.811Z,100228.50
2018-08-17T22:52:21.004Z,100235.75
2018-08-17T22:54:55.429Z,100241.34
2018-08-17T22:57:24.911Z,100244.31
2018-08-17T23:00:10.943Z,100246.29
2018-08-17T23:02:40.999Z,100254.55
2018-08-17T23:05:11.672Z,100252.86
2018-08-17T23:07:40.674Z,100250.88
2018-08-17T23:10:11.871Z,100249.88
2018-08-17T23:12:40.928Z,100250.52
2018-08-17T23:15:11.468Z,100247.22
2018-08-17T23:17:41.887Z,100250.98
2018-08-17T23:20:10.910Z,100252.80
2018-08-17T23:22:46.766Z,100257.08
2018-08-17T23:25:15.968Z,100250.95
2018-08-17T23:27:45.279Z,100255.06
2018-08-17T23:30:14.331Z,100262.25
2018-08-17T23:32:43.763Z,100261.88
2018-08-17T23:35:13.382Z,100261.88
2018-08-17T23:37:42.463Z,100255.56
2018-08-17T23:40:11.587Z,100257.52
2018-08-17T23:42:40.582Z,100251.55
2018-08-17T23:45:11.208Z,100254.37
2018-08-17T23:47:40.415Z,100258.63
2018-08-17T23:50:10.498Z,100261.75
2018-08-17T23:52:39.650Z,100262.06
2018-08-17T23:55:10.644Z,100268.30
2018-08-17T23:57:39.667Z,100271.19
